Time;durP1;ratioP1;P1;durP2;ratioP2;P2;SDS_P1;SDS_P2;PMS_P1;PMS_P2;Temp;Humidity;BMP_temperature;BMP_pressure;BME280_temperature;BME280_humidity;BME280_pressure;Samples;Min_cycle;Max_cycle;Signal;HPM_P1;HPM_P2
2021/12/12 00:00:31;;;;;;;10.80;3.70;;;;;;;10.69;100.00;97814.06;5112650;28;20201;-61
2021/12/12 00:03:06;;;;;;;9.30;3.47;;;;;;;10.74;100.00;97811.88;5112453;28;20242;-62
2021/12/12 00:05:38;;;;;;;9.40;2.70;;;;;;;10.85;100.00;97808.34;5112375;28;20228;-68
2021/12/12 00:08:06;;;;;;;11.10;4.03;;;;;;;10.97;100.00;97812.28;5112291;28;20217;-68
2021/12/12 00:10:36;;;;;;;13.27;3.77;;;;;;;11.05;100.00;97809.81;5112591;28;20554;-69
2021/12/12 00:13:07;;;;;;;13.13;2.80;;;;;;;11.12;99.76;97812.59;5112630;28;20224;-68
2021/12/12 00:15:36;;;;;;;14.40;3.67;;;;;;;11.14;99.89;97817.53;5112212;28;20204;-68
2021/12/12 00:18:03;;;;;;;17.00;4.17;;;;;;;11.16;100.00;97826.69;5112052;28;20221;-62
2021/12/12 00:20:32;;;;;;;7.70;3.47;;;;;;;11.14;99.34;97827.78;5112198;28;20211;-68
2021/12/12 00:22:59;;;;;;;11.33;3.50;;;;;;;11.19;99.05;97831.50;5111973;28;20227;-68
2021/12/12 00:25:30;;;;;;;9.10;3.20;;;;;;;11.21;98.91;97823.69;5111429;28;20237;-63
2021/12/12 00:27:57;;;;;;;11.60;4.10;;;;;;;11.23;99.21;97839.72;5112024;28;20228;-63
2021/12/12 00:30:25;;;;;;;14.70;3.80;;;;;;;11.20;99.15;97832.31;5111868;28;20688;-62
2021/12/12 00:32:53;;;;;;;6.57;3.40;;;;;;;11.24;99.66;97837.00;5112275;28;20673;-68
2021/12/12 00:35:22;;;;;;;13.57;3.97;;;;;;;11.23;99.63;97834.59;5112217;28;20198;-68
2021/12/12 00:37:55;;;;;;;8.97;3.60;;;;;;;11.25;99.32;97846.28;5111739;28;20706;-68
2021/12/12 00:40:26;;;;;;;13.20;4.17;;;;;;;11.25;99.66;97860.81;5112042;28;20220;-63
2021/12/12 00:42:57;;;;;;;10.37;4.10;;;;;;;11.24;99.51;97869.47;5111741;28;20721;-62
2021/12/12 00:45:26;;;;;;;10.73;4.43;;;;;;;11.34;98.86;97872.75;5111678;28;20229;-62
2021/12/12 00:47:55;;;;;;;17.97;8.80;;;;;;;10.58;94.47;97889.16;5111813;28;20289;-68
2021/12/12 00:50:27;;;;;;;19.73;9.73;;;;;;;9.98;91.87;97897.09;5111607;28;20197;-68
2021/12/12 00:52:54;;;;;;;17.60;9.23;;;;;;;9.30;92.47;97907.25;5111501;28;20225;-63
2021/12/12 00:55:22;;;;;;;19.87;9.90;;;;;;;8.82;94.22;97913.06;5111606;28;20197;-63
2021/12/12 00:57:53;;;;;;;19.83;9.30;;;;;;;8.57;95.12;97905.84;5111314;28;20224;-68
2021/12/12 01:00:24;;;;;;;20.70;10.17;;;;;;;8.35;96.38;97915.22;5112080;28;20205;-63
2021/12/12 01:02:52;;;;;;;19.33;9.37;;;;;;;8.16;96.93;97915.09;5111432;28;20224;-62
2021/12/12 01:05:21;;;;;;;20.30;9.63;;;;;;;7.81;98.09;97931.47;5111507;28;20232;-68
2021/12/12 01:07:50;;;;;;;17.33;8.97;;;;;;;7.36;100.00;97936.69;5111195;28;20221;-68
2021/12/12 01:10:25;;;;;;;20.03;9.30;;;;;;;7.14;100.00;97924.00;5111425;28;20216;-68
2021/12/12 01:12:53;;;;;;;17.20;8.73;;;;;;;6.95;100.00;97938.13;5111467;28;20227;-68
2021/12/12 01:15:26;;;;;;;22.60;8.27;;;;;;;6.79;100.00;97940.19;5111193;28;20201;-61
2021/12/12 01:17:55;;;;;;;112.30;11.33;;;;;;;6.71;100.00;97934.88;5111418;28;20221;-67
2021/12/12 01:20:29;;;;;;;83.57;10.47;;;;;;;6.44;100.00;97927.59;5111080;28;20202;-62
2021/12/12 01:23:01;;;;;;;48.57;9.30;;;;;;;6.30;100.00;97937.03;5111461;28;20214;-62
2021/12/12 01:25:32;;;;;;;70.93;9.33;;;;;;;6.17;100.00;97936.31;5111123;28;20616;-63
2021/12/12 01:27:59;;;;;;;205.10;12.17;;;;;;;6.05;100.00;97948.16;5111018;28;20228;-68
2021/12/12 01:30:27;;;;;;;85.43;10.23;;;;;;;5.99;100.00;97937.63;5110865;28;20193;-62
2021/12/12 01:32:59;;;;;;;159.37;11.73;;;;;;;5.92;100.00;97937.22;5111225;28;20221;-62
2021/12/12 01:35:27;;;;;;;92.60;9.10;;;;;;;5.93;100.00;97931.25;5110795;28;20215;-68
2021/12/12 01:40:45;;;;;;;66.70;8.33;;;;;;;5.88;100.00;97940.91;5110730;28;20200;-69
2021/12/12 01:43:20;;;;;;;111.73;9.20;;;;;;;5.83;100.00;97953.09;5110875;28;20212;-69
2021/12/12 01:45:52;;;;;;;127.10;9.70;;;;;;;5.73;100.00;97962.28;5110704;28;20285;-62
2021/12/12 01:48:24;;;;;;;61.40;7.07;;;;;;;5.65;100.00;97965.38;5111069;28;20208;-69
2021/12/12 01:50:55;;;;;;;60.10;6.57;;;;;;;5.46;100.00;97970.88;5110830;28;20213;-68
2021/12/12 01:53:28;;;;;;;65.13;6.57;;;;;;;5.38;100.00;97978.22;5110965;28;20193;-61
2021/12/12 01:56:04;;;;;;;55.80;6.40;;;;;;;5.25;100.00;97926.78;5110670;28;20201;-62
2021/12/12 01:58:33;;;;;;;6.20;3.73;;;;;;;5.33;100.00;97914.38;5110632;28;20212;-69
2021/12/12 02:01:04;;;;;;;7.20;3.83;;;;;;;5.39;100.00;97911.41;5110824;28;21007;-61
2021/12/12 02:03:36;;;;;;;8.37;4.13;;;;;;;5.36;100.00;97884.56;5110718;28;20200;-62
2021/12/12 02:06:09;;;;;;;9.93;4.13;;;;;;;5.12;100.00;97871.88;5110673;28;20229;-62
2021/12/12 02:08:36;;;;;;;10.43;4.23;;;;;;;5.23;100.00;97853.38;5110423;28;20193;-62
2021/12/12 02:11:07;;;;;;;7.53;3.80;;;;;;;5.28;100.00;97840.41;5110636;28;20212;-62
2021/12/12 02:13:38;;;;;;;7.33;3.90;;;;;;;5.32;100.00;97829.13;5111087;28;20202;-62
2021/12/12 02:16:06;;;;;;;8.03;3.80;;;;;;;5.39;100.00;97802.44;5110350;28;20236;-62
2021/12/12 02:18:37;;;;;;;7.33;3.83;;;;;;;5.50;100.00;97764.44;5110359;28;20204;-62
2021/12/12 02:21:16;;;;;;;8.03;4.30;;;;;;;5.58;100.00;97741.84;5110703;28;20227;-68
2021/12/12 02:24:16;;;;;;;7.87;3.80;;;;;;;5.58;100.00;97757.06;5110485;28;20239;-67
2021/12/12 02:35:14;;;;;;;8.20;4.70;;;;;;;5.63;100.00;97907.13;5110290;28;20288;-61
2021/12/12 02:37:42;;;;;;;8.83;4.53;;;;;;;5.62;100.00;97938.50;5110521;28;20599;-61
2021/12/12 02:40:14;;;;;;;8.77;4.83;;;;;;;5.64;100.00;97954.41;5110230;28;20209;-68
2021/12/12 02:42:42;;;;;;;42.63;6.63;;;;;;;5.53;100.00;97971.28;5110083;28;20236;-67
2021/12/12 02:45:10;;;;;;;300.63;17.27;;;;;;;5.37;100.00;97969.81;5110447;28;20229;-67
2021/12/12 02:47:38;;;;;;;223.33;13.23;;;;;;;5.41;100.00;97985.59;5110117;28;20224;-68
2021/12/12 02:50:13;;;;;;;273.00;16.27;;;;;;;5.36;100.00;97980.06;5113569;28;20189;-68
2021/12/12 02:52:42;;;;;;;327.53;17.53;;;;;;;5.27;100.00;97986.56;5114296;28;20335;-62
2021/12/12 02:55:14;;;;;;;312.60;15.53;;;;;;;5.13;100.00;97969.75;5113993;28;20220;-68
2021/12/12 02:57:42;;;;;;;198.93;12.97;;;;;;;5.12;100.00;97975.75;5113784;28;20228;-68
2021/12/12 03:00:17;;;;;;;48.07;8.00;;;;;;;5.04;100.00;97967.84;5114009;28;20202;-61
2021/12/12 03:02:46;;;;;;;21.03;6.93;;;;;;;5.09;100.00;97970.91;5113581;28;20270;-61
2021/12/12 03:05:16;;;;;;;41.77;7.33;;;;;;;5.07;100.00;97965.13;5113914;28;20233;-68
2021/12/12 03:07:44;;;;;;;15.90;6.87;;;;;;;5.04;100.00;97965.31;5113802;28;20244;-68
2021/12/12 03:10:16;;;;;;;16.17;6.77;;;;;;;5.05;100.00;97961.88;5113513;28;20197;-69
2021/12/12 03:12:44;;;;;;;16.93;6.53;;;;;;;5.06;100.00;97967.75;5113268;28;20224;-68
2021/12/12 03:15:14;;;;;;;14.43;6.93;;;;;;;5.03;100.00;97968.75;5113812;28;20616;-68
2021/12/12 03:17:43;;;;;;;15.63;7.07;;;;;;;5.03;100.00;97973.81;5113381;28;20617;-68
2021/12/12 03:20:23;;;;;;;14.33;6.87;;;;;;;5.09;100.00;97980.19;5113241;28;20200;-62
2021/12/12 03:22:56;;;;;;;15.63;7.57;;;;;;;5.11;100.00;97981.72;5113702;28;20604;-67
2021/12/12 03:25:25;;;;;;;22.40;7.50;;;;;;;5.15;100.00;97978.06;5113493;28;20233;-61
2021/12/12 03:27:53;;;;;;;33.40;7.87;;;;;;;5.11;100.00;97976.66;5113233;28;20628;-69
2021/12/12 03:30:20;;;;;;;44.43;8.77;;;;;;;5.13;100.00;97986.69;5113356;28;20589;-61
2021/12/12 03:32:48;;;;;;;15.10;7.03;;;;;;;5.13;100.00;98000.16;5113484;28;20225;-68
2021/12/12 03:35:15;;;;;;;15.57;7.37;;;;;;;5.12;100.00;97997.72;5113250;28;20201;-61
2021/12/12 03:37:42;;;;;;;18.43;7.23;;;;;;;5.13;100.00;97984.16;5112789;28;20218;-68
2021/12/12 03:40:15;;;;;;;15.30;7.17;;;;;;;5.10;100.00;97974.22;5112849;28;20721;-62
2021/12/12 03:42:45;;;;;;;17.00;7.73;;;;;;;5.14;100.00;97975.63;5113028;28;20321;-62
2021/12/12 03:45:12;;;;;;;15.87;7.57;;;;;;;5.15;100.00;97962.88;5112823;28;20237;-67
2021/12/12 03:47:42;;;;;;;18.10;8.17;;;;;;;5.22;100.00;97964.06;5112697;28;20274;-68
2021/12/12 03:50:12;;;;;;;16.27;7.37;;;;;;;5.20;100.00;97944.81;5112843;28;20279;-68
2021/12/12 03:52:39;;;;;;;17.13;8.27;;;;;;;5.24;100.00;97951.31;5113072;28;20236;-62
2021/12/12 03:55:08;;;;;;;18.00;7.83;;;;;;;5.18;100.00;97967.72;5112588;28;20246;-62
2021/12/12 03:57:35;;;;;;;14.97;7.50;;;;;;;5.20;100.00;97975.22;5112831;28;20217;-63
2021/12/12 04:00:07;;;;;;;12.83;6.97;;;;;;;5.11;100.00;97983.44;5112601;27;20202;-68
2021/12/12 04:02:35;;;;;;;16.97;7.47;;;;;;;5.08;100.00;97991.25;5112422;28;20251;-62
2021/12/12 04:05:02;;;;;;;14.47;7.67;;;;;;;5.03;100.00;97999.16;5112387;28;20231;-68
2021/12/12 04:07:32;;;;;;;16.03;7.07;;;;;;;5.00;100.00;97999.34;5112364;28;20225;-63
2021/12/12 04:09:58;;;;;;;15.30;7.47;;;;;;;5.03;100.00;97990.75;5112731;28;20189;-63
2021/12/12 04:12:26;;;;;;;16.73;7.73;;;;;;;5.05;100.00;97994.78;5112270;28;20224;-68
2021/12/12 04:14:55;;;;;;;17.73;7.47;;;;;;;5.05;100.00;98012.53;5112553;28;20197;-68
2021/12/12 04:17:26;;;;;;;14.90;7.43;;;;;;;5.04;100.00;98036.25;5112467;28;20268;-68
2021/12/12 04:19:57;;;;;;;15.57;7.97;;;;;;;4.98;100.00;98032.41;5112350;28;20201;-62
2021/12/12 04:22:24;;;;;;;15.77;7.37;;;;;;;4.95;100.00;98047.00;5112413;28;20225;-62
2021/12/12 04:24:55;;;;;;;17.00;8.20;;;;;;;4.92;100.00;98052.28;5112040;28;20224;-68
2021/12/12 04:27:23;;;;;;;15.07;7.37;;;;;;;4.93;100.00;98058.94;5112040;28;20224;-68
2021/12/12 04:29:52;;;;;;;16.33;7.67;;;;;;;4.89;100.00;98077.78;5112339;28;20647;-68
2021/12/12 04:32:22;;;;;;;18.90;8.17;;;;;;;4.88;100.00;98076.16;5111870;28;20221;-68
2021/12/12 04:34:53;;;;;;;17.87;7.80;;;;;;;4.84;100.00;98072.22;5111950;28;20197;-63
2021/12/12 04:37:22;;;;;;;15.27;7.30;;;;;;;4.84;100.00;98075.56;5111700;28;20229;-64
2021/12/12 04:39:53;;;;;;;12.83;7.27;;;;;;;4.85;100.00;98076.34;5111938;28;20250;-63
2021/12/12 04:42:24;;;;;;;14.50;7.33;;;;;;;4.67;100.00;98094.34;5111540;28;20221;-68
2021/12/12 04:44:55;;;;;;;16.80;7.90;;;;;;;4.62;100.00;98096.38;5111775;28;20198;-68
2021/12/12 04:50:21;;;;;;;13.50;7.43;;;;;;;4.67;100.00;98111.28;5111724;28;20254;-62
2021/12/12 04:52:52;;;;;;;14.50;7.43;;;;;;;4.61;100.00;98119.25;5111454;28;20233;-68
2021/12/12 04:55:26;;;;;;;13.63;7.37;;;;;;;4.53;100.00;98119.72;5111658;28;20233;-62
2021/12/12 04:58:00;;;;;;;12.70;7.50;;;;;;;4.54;100.00;98124.72;5111707;28;20217;-62
2021/12/12 05:00:31;;;;;;;9.80;5.30;;;;;;;4.57;100.00;98133.00;5111467;28;20477;-65
2021/12/12 05:03:02;;;;;;;11.53;5.97;;;;;;;4.58;100.00;98135.44;5111441;28;20210;-62
2021/12/12 05:05:34;;;;;;;11.57;6.23;;;;;;;4.57;100.00;98133.00;5111626;28;20240;-62
2021/12/12 05:08:07;;;;;;;11.53;6.23;;;;;;;4.55;100.00;98128.06;5111423;28;20232;-60
2021/12/12 05:10:38;;;;;;;12.13;6.40;;;;;;;4.53;100.00;98128.13;5111240;28;20197;-61
2021/12/12 05:13:11;;;;;;;10.73;5.87;;;;;;;4.49;100.00;98141.09;5111039;28;20220;-61
2021/12/12 05:15:41;;;;;;;10.73;5.40;;;;;;;4.48;100.00;98154.63;5110996;28;20201;-61
2021/12/12 05:18:12;;;;;;;11.43;5.97;;;;;;;4.49;100.00;98172.28;5110982;28;20236;-61
2021/12/12 05:20:44;;;;;;;11.17;5.90;;;;;;;4.47;100.00;98175.81;5111199;28;20205;-62
2021/12/12 05:23:15;;;;;;;10.13;5.60;;;;;;;4.48;100.00;98190.06;5111350;28;20193;-62
2021/12/12 05:25:48;;;;;;;10.23;5.47;;;;;;;4.50;100.00;98190.81;5110953;28;20232;-63
2021/12/12 05:28:19;;;;;;;11.03;5.90;;;;;;;4.49;100.00;98201.84;5111114;28;20667;-68
2021/12/12 05:30:47;;;;;;;11.63;5.60;;;;;;;4.47;100.00;98208.72;5110995;28;20291;-68
2021/12/12 05:33:16;;;;;;;10.23;5.63;;;;;;;4.46;100.00;98217.22;5110871;28;20205;-68
2021/12/12 05:35:46;;;;;;;10.83;5.57;;;;;;;4.47;100.00;98211.25;5111169;28;20547;-68
2021/12/12 05:38:14;;;;;;;11.20;5.97;;;;;;;4.41;100.00;98221.75;5110856;28;20674;-62
2021/12/12 05:40:44;;;;;;;9.63;5.60;;;;;;;4.40;100.00;98227.72;5110788;28;20582;-62
2021/12/12 05:43:13;;;;;;;10.80;5.67;;;;;;;4.47;100.00;98239.09;5110854;28;20597;-62
2021/12/12 05:45:41;;;;;;;10.53;5.43;;;;;;;4.46;100.00;98248.41;5110879;28;20584;-68
2021/12/12 05:48:09;;;;;;;10.40;5.93;;;;;;;4.45;100.00;98240.88;5110637;28;20213;-62
2021/12/12 05:50:37;;;;;;;12.57;6.00;;;;;;;4.50;100.00;98254.88;5110646;28;20247;-68
2021/12/12 05:53:06;;;;;;;10.33;5.97;;;;;;;4.61;100.00;98284.63;5110745;28;20614;-62
2021/12/12 05:55:36;;;;;;;9.67;5.40;;;;;;;4.63;100.00;98280.28;5110535;28;20212;-68
2021/12/12 05:58:06;;;;;;;11.40;5.93;;;;;;;4.65;100.00;98270.84;5110937;28;20221;-62
2021/12/12 06:00:37;;;;;;;12.00;5.93;;;;;;;4.71;100.00;98282.31;5110456;28;20197;-68
2021/12/12 06:03:08;;;;;;;16.53;5.97;;;;;;;4.73;100.00;98291.47;5110766;28;20239;-62
2021/12/12 06:05:35;;;;;;;10.97;5.97;;;;;;;4.83;100.00;98301.03;5110436;28;20240;-62
2021/12/12 06:08:03;;;;;;;11.60;6.00;;;;;;;4.84;100.00;98302.66;5110811;28;20217;-62
2021/12/12 06:10:33;;;;;;;13.17;6.13;;;;;;;4.90;100.00;98312.41;5110584;28;20197;-62
2021/12/12 06:13:01;;;;;;;12.93;6.27;;;;;;;4.82;100.00;98329.78;5111195;28;20641;-64
2021/12/12 06:15:30;;;;;;;14.17;6.07;;;;;;;4.82;100.00;98342.47;5110711;28;20197;-62
2021/12/12 06:17:59;;;;;;;10.90;6.00;;;;;;;4.86;100.00;98346.41;5110509;28;20209;-68
2021/12/12 06:20:28;;;;;;;11.03;6.33;;;;;;;4.91;100.00;98352.03;5110620;28;20204;-68
2021/12/12 06:22:55;;;;;;;12.60;6.00;;;;;;;4.78;100.00;98366.34;5110699;28;20279;-62
2021/12/12 06:25:24;;;;;;;12.33;6.73;;;;;;;4.80;100.00;98372.97;5114850;28;20666;-62
2021/12/12 06:27:53;;;;;;;12.27;6.77;;;;;;;4.81;100.00;98373.75;5114604;28;20563;-62
2021/12/12 06:30:23;;;;;;;15.30;7.23;;;;;;;4.76;100.00;98372.31;5114488;28;20200;-62
2021/12/12 06:32:50;;;;;;;16.00;8.30;;;;;;;4.75;100.00;98375.75;5114532;28;20726;-63
2021/12/12 06:35:19;;;;;;;17.93;8.77;;;;;;;4.75;100.00;98375.75;5114240;28;20201;-62
2021/12/12 06:37:46;;;;;;;17.07;8.27;;;;;;;4.76;100.00;98387.50;5114130;28;20232;-62
2021/12/12 06:40:19;;;;;;;15.77;8.37;;;;;;;4.88;100.00;98395.28;5114233;28;20202;-67
2021/12/12 06:42:47;;;;;;;18.90;8.70;;;;;;;4.91;100.00;98395.09;5114128;27;20221;-67
2021/12/12 06:45:17;;;;;;;18.80;10.13;;;;;;;4.96;100.00;98398.16;5114368;28;20297;-68
2021/12/12 06:47:44;;;;;;;21.50;11.23;;;;;;;5.05;100.00;98397.59;5113817;28;20220;-68
2021/12/12 06:50:11;;;;;;;28.93;9.80;;;;;;;5.08;100.00;98407.56;5114173;28;20189;-62
2021/12/12 06:52:39;;;;;;;18.70;8.33;;;;;;;5.12;100.00;98425.91;5114128;28;20228;-62
2021/12/12 06:55:10;;;;;;;18.03;8.30;;;;;;;5.13;100.00;98435.97;5114064;28;20208;-68
2021/12/12 06:57:38;;;;;;;18.50;8.13;;;;;;;5.28;100.00;98434.22;5113615;28;20281;-68
2021/12/12 07:00:09;;;;;;;17.67;8.50;;;;;;;5.28;100.00;98438.47;5113805;28;20233;-68
2021/12/12 07:02:37;;;;;;;47.07;9.03;;;;;;;5.34;100.00;98450.78;5113759;28;20213;-63
2021/12/12 07:05:07;;;;;;;33.47;8.90;;;;;;;5.24;100.00;98452.25;5113865;28;20209;-68
2021/12/12 07:07:34;;;;;;;20.27;10.07;;;;;;;5.39;100.00;98456.38;5113425;28;20236;-62
2021/12/12 07:10:02;;;;;;;19.03;9.03;;;;;;;5.45;100.00;98453.47;5113683;28;20201;-62
2021/12/12 07:12:29;;;;;;;31.90;9.77;;;;;;;5.53;100.00;98451.28;5113486;28;20213;-62
2021/12/12 07:14:56;;;;;;;27.00;11.00;;;;;;;5.60;100.00;98462.66;5113613;28;20201;-62
2021/12/12 07:17:24;;;;;;;35.90;9.23;;;;;;;5.75;100.00;98470.22;5113346;28;20224;-62
2021/12/12 07:19:54;;;;;;;18.27;8.80;;;;;;;5.81;100.00;98472.38;5113419;27;20209;-68
2021/12/12 07:22:21;;;;;;;20.10;10.20;;;;;;;5.92;100.00;98479.31;5113264;28;20220;-67
2021/12/12 07:24:49;;;;;;;16.20;7.80;;;;;;;5.97;100.00;98490.03;5113692;28;20201;-62
2021/12/12 07:27:17;;;;;;;13.73;7.53;;;;;;;6.11;100.00;98503.47;5113548;28;20237;-62
2021/12/12 07:29:45;;;;;;;15.97;7.43;;;;;;;6.18;100.00;98515.78;5113249;28;20201;-62
2021/12/12 07:32:12;;;;;;;12.70;6.60;;;;;;;6.20;100.00;98514.78;5112852;28;20227;-68
2021/12/12 07:34:39;;;;;;;12.27;6.80;;;;;;;6.18;100.00;98525.94;5112841;28;20201;-62
2021/12/12 07:37:09;;;;;;;11.43;6.50;;;;;;;6.27;100.00;98530.41;5112969;28;20819;-62
2021/12/12 07:39:39;;;;;;;13.67;7.57;;;;;;;6.26;100.00;98538.94;5113170;28;20224;-68
2021/12/12 07:42:07;;;;;;;11.43;6.80;;;;;;;6.11;100.00;98544.09;5113350;28;20213;-62
2021/12/12 07:44:37;;;;;;;13.10;7.20;;;;;;;6.19;100.00;98556.28;5112836;28;20193;-62
2021/12/12 07:47:05;;;;;;;11.97;6.63;;;;;;;6.25;100.00;98567.75;5112827;28;20248;-62
2021/12/12 07:49:35;;;;;;;7.57;5.03;;;;;;;6.12;100.00;98577.88;5112682;28;20201;-62
2021/12/12 07:52:04;;;;;;;8.00;4.73;;;;;;;6.15;100.00;98572.63;5112654;28;20232;-62
2021/12/12 07:54:33;;;;;;;12.57;6.17;;;;;;;6.12;100.00;98571.06;5112664;28;20250;-68
2021/12/12 07:57:00;;;;;;;9.90;5.53;;;;;;;6.16;100.00;98586.13;5113049;28;20244;-68
2021/12/12 07:59:27;;;;;;;10.77;6.10;;;;;;;6.16;100.00;98588.66;5112580;28;20197;-62
2021/12/12 08:01:54;;;;;;;10.07;4.77;;;;;;;6.14;100.00;98593.84;5112427;28;20221;-68
2021/12/12 08:04:27;;;;;;;9.90;5.60;;;;;;;6.18;100.00;98604.59;5112730;28;20201;-68
2021/12/12 08:06:54;;;;;;;8.23;5.33;;;;;;;6.13;100.00;98615.03;5112514;28;20241;-62
2021/12/12 08:09:23;;;;;;;9.93;5.70;;;;;;;6.21;100.00;98617.13;5112596;28;20598;-67
2021/12/12 08:11:52;;;;;;;8.57;5.47;;;;;;;6.22;100.00;98618.72;5112324;28;20218;-67
2021/12/12 08:14:23;;;;;;;10.37;5.20;;;;;;;6.10;100.00;98620.31;5112351;28;20197;-67
2021/12/12 08:16:52;;;;;;;8.90;5.30;;;;;;;6.13;100.00;98623.47;5112092;28;20217;-62
2021/12/12 08:19:22;;;;;;;8.17;5.23;;;;;;;6.22;100.00;98628.88;5112225;28;20204;-62
2021/12/12 08:21:49;;;;;;;8.53;5.17;;;;;;;6.07;100.00;98634.00;5112569;28;20221;-62
2021/12/12 08:24:17;;;;;;;9.10;5.10;;;;;;;5.99;100.00;98623.50;5112256;28;20628;-67
2021/12/12 08:26:46;;;;;;;10.03;5.10;;;;;;;5.95;100.00;98632.19;5112204;28;20229;-62
2021/12/12 08:29:16;;;;;;;6.77;4.27;;;;;;;5.93;100.00;98626.41;5112224;28;20228;-62
2021/12/12 08:31:43;;;;;;;8.30;4.90;;;;;;;6.01;100.00;98618.34;5112091;27;20225;-62
2021/12/12 08:34:12;;;;;;;7.83;4.27;;;;;;;5.88;100.00;98615.72;5111899;28;20198;-62
2021/12/12 08:36:42;;;;;;;6.13;4.03;;;;;;;5.84;100.00;98616.78;5112083;28;20639;-68
2021/12/12 08:39:11;;;;;;;5.47;3.03;;;;;;;5.81;100.00;98619.50;5112021;28;20663;-68
2021/12/12 08:41:38;;;;;;;6.43;3.73;;;;;;;5.81;100.00;98629.66;5111603;28;20725;-68
2021/12/12 08:44:07;;;;;;;6.47;3.80;;;;;;;5.82;100.00;98647.31;5111970;28;20216;-68
2021/12/12 08:46:37;;;;;;;7.57;4.30;;;;;;;5.89;100.00;98645.22;5110894;28;20229;-62
2021/12/12 08:49:05;;;;;;;8.60;4.73;;;;;;;5.87;100.00;98659.72;5111704;28;20201;-68
2021/12/12 08:51:36;;;;;;;8.27;4.33;;;;;;;5.83;100.00;98654.03;5111360;27;20232;-68
2021/12/12 08:54:13;;;;;;;5.90;3.80;;;;;;;5.79;100.00;98651.75;5111542;28;20197;-68
2021/12/12 08:56:44;;;;;;;9.00;4.87;;;;;;;5.83;100.00;98643.88;5111427;28;20220;-68
2021/12/12 08:59:16;;;;;;;9.13;5.37;;;;;;;6.05;100.00;98643.44;5111812;28;20273;-68
2021/12/12 09:01:46;;;;;;;6.97;4.00;;;;;;;6.32;100.00;98645.19;5111213;28;20229;-62
2021/12/12 09:04:13;;;;;;;3.70;2.50;;;;;;;6.54;100.00;98642.94;5111421;28;20681;-62
2021/12/12 09:06:48;;;;;;;5.77;3.43;;;;;;;6.94;100.00;98648.03;5111192;28;20244;-68
2021/12/12 09:09:20;;;;;;;4.63;2.87;;;;;;;7.11;99.43;98646.13;5111389;28;20196;-62
2021/12/12 09:11:53;;;;;;;5.13;3.20;;;;;;;7.25;96.50;98656.22;5111434;28;20221;-68
2021/12/12 09:14:24;;;;;;;3.93;2.40;;;;;;;7.37;95.18;98652.84;5111244;28;20197;-62
2021/12/12 09:17:01;;;;;;;7.73;3.50;;;;;;;7.41;94.75;98661.91;5111352;28;20240;-67
2021/12/12 09:19:34;;;;;;;3.83;2.47;;;;;;;7.67;96.13;98664.44;5111269;28;20654;-62
2021/12/12 09:22:05;;;;;;;3.37;2.50;;;;;;;8.05;95.35;98661.03;5111422;28;20248;-62
2021/12/12 09:24:45;;;;;;;3.50;1.90;;;;;;;8.08;90.04;98655.72;5111088;28;20197;-68
2021/12/12 09:27:19;;;;;;;2.37;1.60;;;;;;;8.06;89.20;98667.78;5110879;28;20670;-63
2021/12/12 09:29:54;;;;;;;2.53;1.73;;;;;;;7.97;89.41;98673.47;5110980;28;20200;-62
2021/12/12 09:32:29;;;;;;;2.53;1.73;;;;;;;8.10;89.94;98675.06;5111337;28;20227;-67
2021/12/12 09:35:01;;;;;;;3.87;2.17;;;;;;;8.21;89.39;98671.81;5111336;28;20192;-68
2021/12/12 09:37:33;;;;;;;3.17;2.00;;;;;;;8.01;89.95;98682.53;5110746;28;20213;-68
2021/12/12 09:40:08;;;;;;;2.90;2.20;;;;;;;7.76;88.75;98684.19;5110956;28;20208;-62
2021/12/12 09:42:57;;;;;;;2.20;1.53;;;;;;;7.90;86.93;98690.91;5110615;28;20212;-68
2021/12/12 09:45:40;;;;;;;2.13;1.30;;;;;;;8.05;83.02;98702.56;5111275;28;20212;-68
2021/12/12 09:51:44;;;;;;;2.13;1.50;;;;;;;7.62;84.02;98702.09;5110755;28;20232;-67
2021/12/12 09:54:24;;;;;;;2.90;1.60;;;;;;;7.41;86.26;98697.50;5110839;28;20201;-60
2021/12/12 09:56:57;;;;;;;2.10;1.40;;;;;;;7.19;87.01;98692.22;5111103;28;20223;-68
2021/12/12 09:59:44;;;;;;;2.27;1.50;;;;;;;7.71;88.43;98691.34;5115107;28;20205;-67
2021/12/12 10:02:20;;;;;;;2.00;1.47;;;;;;;8.09;83.88;98698.91;5115166;28;20706;-62
2021/12/12 10:05:02;;;;;;;3.00;1.90;;;;;;;7.89;85.90;98704.56;5114923;28;20196;-67
2021/12/12 10:07:41;;;;;;;4.33;2.30;;;;;;;7.59;86.86;98704.84;5114615;28;20239;-62
2021/12/12 10:10:15;;;;;;;2.57;1.50;;;;;;;7.38;87.13;98707.88;5114973;28;20197;-67
2021/12/12 10:12:48;;;;;;;2.77;1.70;;;;;;;7.15;88.52;98724.63;5114598;28;20225;-62
2021/12/12 10:15:20;;;;;;;2.40;1.60;;;;;;;6.95;87.96;98731.00;5114946;28;20201;-68
2021/12/12 10:17:49;;;;;;;2.57;1.77;;;;;;;7.02;89.41;98736.50;5114421;28;20232;-61
2021/12/12 10:20:23;;;;;;;1.60;1.30;;;;;;;7.04;89.83;98742.31;5114762;28;20262;-68
2021/12/12 10:23:05;;;;;;;1.93;1.50;;;;;;;6.94;89.79;98752.22;5114783;28;20627;-68
2021/12/12 10:25:36;;;;;;;3.80;1.20;;;;;;;7.15;90.42;98761.94;5114416;27;20201;-63
2021/12/12 10:28:15;;;;;;;1.53;1.33;;;;;;;7.45;87.97;98766.81;5114281;28;20241;-68
2021/12/12 10:30:47;;;;;;;2.40;1.50;;;;;;;7.84;87.80;98765.94;5114638;27;20201;-61
2021/12/12 10:33:18;;;;;;;2.00;1.50;;;;;;;7.55;84.67;98769.56;5114350;28;20355;-62
2021/12/12 10:35:51;;;;;;;5.27;2.60;;;;;;;7.46;86.83;98787.06;5114106;28;20721;-62
2021/12/12 10:38:21;;;;;;;5.37;1.60;;;;;;;7.05;84.93;98791.41;5114320;28;20189;-61
2021/12/12 10:40:51;;;;;;;7.57;3.50;;;;;;;6.85;85.25;98785.84;5114317;27;20204;-68
2021/12/12 10:43:25;;;;;;;2.87;2.00;;;;;;;6.66;85.24;98791.25;5114147;28;20185;-68
2021/12/12 10:45:59;;;;;;;8.37;4.00;;;;;;;6.51;86.52;98787.06;5114801;28;20204;-62
2021/12/12 10:48:33;;;;;;;3.33;1.70;;;;;;;6.44;87.26;98781.56;5113952;28;20228;-62
2021/12/12 10:51:09;;;;;;;1.77;1.53;;;;;;;6.39;88.27;98783.53;5114143;28;20588;-66
2021/12/12 10:53:41;;;;;;;1.73;1.20;;;;;;;6.41;87.61;98780.94;5113988;28;20219;-68
2021/12/12 10:56:18;;;;;;;1.80;1.40;;;;;;;6.52;89.11;98781.91;5113923;28;20217;-62
2021/12/12 10:58:49;;;;;;;2.17;1.33;;;;;;;6.61;88.04;98784.81;5113885;28;20204;-61
2021/12/12 11:01:21;;;;;;;2.80;1.67;;;;;;;6.65;88.65;98774.34;5114142;28;20217;-67
2021/12/12 11:03:52;;;;;;;2.10;1.50;;;;;;;6.55;87.22;98784.25;5113850;28;20197;-62
2021/12/12 11:06:27;;;;;;;3.57;2.07;;;;;;;6.44;87.61;98796.78;5114344;28;20248;-61
2021/12/12 11:09:00;;;;;;;2.03;1.50;;;;;;;6.34;87.63;98810.91;5113202;28;20237;-67
2021/12/12 11:11:36;;;;;;;1.80;1.50;;;;;;;6.29;89.75;98811.22;5113407;28;20220;-67
2021/12/12 11:14:12;;;;;;;2.73;1.60;;;;;;;6.31;90.11;98806.88;5113596;28;20686;-61
2021/12/12 11:16:45;;;;;;;2.57;1.80;;;;;;;6.37;90.80;98803.16;5113373;28;20220;-68
2021/12/12 11:19:17;;;;;;;3.50;2.00;;;;;;;6.41;89.66;98807.13;5113470;28;20197;-61
2021/12/12 11:21:51;;;;;;;2.90;1.93;;;;;;;6.37;89.42;98818.38;5113140;28;20218;-67
2021/12/12 11:24:22;;;;;;;3.43;2.10;;;;;;;6.29;90.07;98808.69;5113616;28;20201;-62
2021/12/12 11:26:57;;;;;;;3.90;2.20;;;;;;;6.32;91.33;98812.75;5113287;28;20230;-61
2021/12/12 11:29:29;;;;;;;4.83;1.87;;;;;;;6.45;91.85;98818.72;5113554;28;20207;-68
2021/12/12 11:32:01;;;;;;;3.60;2.07;;;;;;;6.50;91.24;98831.97;5113541;28;20221;-62
2021/12/12 11:34:29;;;;;;;3.90;2.00;;;;;;;6.43;92.06;98832.41;5113190;28;20666;-68
2021/12/12 11:37:09;;;;;;;2.30;1.53;;;;;;;6.38;92.53;98831.88;5113221;28;20228;-67
2021/12/12 11:39:44;;;;;;;2.13;1.40;;;;;;;6.25;91.37;98831.78;5113308;28;20189;-67
2021/12/12 11:42:18;;;;;;;3.33;1.97;;;;;;;6.19;93.14;98832.13;5113088;28;20221;-61
2021/12/12 11:44:53;;;;;;;2.33;1.70;;;;;;;6.13;94.61;98838.38;5112952;28;20192;-61
2021/12/12 11:47:36;;;;;;;1.77;1.23;;;;;;;5.90;93.28;98837.13;5112941;28;20233;-61
2021/12/12 11:50:07;;;;;;;2.17;1.67;;;;;;;5.83;94.20;98830.78;5112798;28;20193;-61
2021/12/12 11:52:47;;;;;;;2.87;1.90;;;;;;;5.81;95.61;98823.25;5113113;28;20232;-62
2021/12/12 11:55:19;;;;;;;4.27;1.70;;;;;;;5.87;95.74;98817.81;5112802;28;20198;-67
2021/12/12 11:57:54;;;;;;;3.67;2.10;;;;;;;5.89;96.15;98810.16;5112501;28;20219;-67
2021/12/12 12:00:24;;;;;;;4.10;2.30;;;;;;;5.95;95.91;98809.81;5112833;28;20706;-68
2021/12/12 12:03:07;;;;;;;2.70;1.67;;;;;;;6.00;94.06;98812.91;5112795;28;20225;-67